Time;durP1;ratioP1;P1;durP2;ratioP2;P2;SDS_P1;SDS_P2;PMS_P1;PMS_P2;Temp;Humidity;BMP_temperature;BMP_pressure;BME280_temperature;BME280_humidity;BME280_pressure;Samples;Min_cycle;Max_cycle;Signal;HPM_P1;HPM_P2
2022/09/16 00:01:11;;;;;;;5.13;0.90;;;10.80;99.90;;;;;;4995491;28;20133;-76
2022/09/16 00:03:36;;;;;;;6.15;0.98;;;10.80;99.90;;;;;;4995189;28;20046;-75
2022/09/16 00:06:02;;;;;;;5.15;0.80;;;11.00;99.90;;;;;;4995370;28;20042;-73
2022/09/16 00:08:28;;;;;;;5.25;0.90;;;10.90;99.90;;;;;;4995150;28;20149;-74
2022/09/16 00:10:59;;;;;;;6.38;0.90;;;10.90;99.90;;;;;;4994361;28;20137;-75
2022/09/16 00:13:24;;;;;;;3.80;0.85;;;10.90;99.90;;;;;;4995264;28;20053;-79
2022/09/16 00:15:50;;;;;;;6.35;0.82;;;10.90;99.90;;;;;;4994234;28;20398;-80
2022/09/16 00:18:16;;;;;;;2.55;0.77;;;10.90;99.90;;;;;;4995328;28;20050;-74
2022/09/16 00:20:49;;;;;;;6.78;0.77;;;10.90;99.90;;;;;;4995027;28;20049;-79
2022/09/16 00:23:16;;;;;;;2.55;0.70;;;10.90;99.90;;;;;;4993777;28;20046;-76
2022/09/16 00:25:42;;;;;;;4.05;0.80;;;10.90;99.90;;;;;;4995327;28;20054;-80
2022/09/16 00:28:08;;;;;;;2.65;0.70;;;10.80;99.90;;;;;;4993544;28;20400;-75
2022/09/16 00:30:34;;;;;;;3.20;0.65;;;11.00;99.90;;;;;;4994831;28;20061;-75
2022/09/16 00:33:00;;;;;;;3.95;0.80;;;10.70;99.90;;;;;;4994877;28;20050;-79
2022/09/16 00:35:25;;;;;;;8.55;1.38;;;10.70;99.90;;;;;;4993576;28;20050;-81
2022/09/16 00:37:51;;;;;;;7.38;1.10;;;10.60;99.90;;;;;;4993351;28;20065;-82
2022/09/16 00:40:17;;;;;;;2.05;0.70;;;10.50;99.90;;;;;;4994729;28;20494;-77
2022/09/16 00:42:42;;;;;;;3.58;0.90;;;10.50;99.90;;;;;;4993572;28;20059;-79
2022/09/16 00:45:23;;;;;;;10.55;1.00;;;10.50;99.90;;;;;;4993899;28;20033;-74
2022/09/16 00:47:56;;;;;;;8.32;0.98;;;10.50;99.90;;;;;;4994580;28;20045;-74
2022/09/16 00:50:42;;;;;;;5.13;1.52;;;10.50;99.90;;;;;;4993858;28;20046;-74
2022/09/16 00:53:40;;;;;;;4.40;1.20;;;10.50;99.90;;;;;;4994313;28;20081;-72
2022/09/16 00:56:08;;;;;;;2.15;0.80;;;10.50;99.90;;;;;;4953311;29;20055;-75
2022/09/16 00:58:46;;;;;;;5.97;0.90;;;10.70;99.90;;;;;;4953506;29;20047;-74
2022/09/16 01:01:12;;;;;;;3.63;1.00;;;10.60;99.90;;;;;;4937879;29;20048;-71
2022/09/16 01:03:44;;;;;;;3.67;0.80;;;10.60;99.90;;;;;;4953460;29;20074;-74
2022/09/16 01:06:10;;;;;;;5.00;1.00;;;10.60;99.90;;;;;;4953087;29;20078;-73
2022/09/16 01:08:36;;;;;;;1.45;0.60;;;10.60;99.90;;;;;;4952744;29;20534;-74
2022/09/16 01:11:02;;;;;;;4.65;1.00;;;10.60;99.90;;;;;;4937357;29;20066;-73
2022/09/16 01:13:28;;;;;;;5.95;0.80;;;10.60;99.90;;;;;;4953391;29;20466;-73
2022/09/16 01:16:10;;;;;;;4.20;1.13;;;10.60;99.90;;;;;;4953253;29;20166;-74
2022/09/16 01:18:42;;;;;;;5.00;0.82;;;10.70;99.90;;;;;;4953224;29;20050;-74
2022/09/16 01:21:19;;;;;;;5.65;1.10;;;10.70;99.90;;;;;;4952975;29;20086;-74
2022/09/16 01:24:12;;;;;;;6.07;0.80;;;10.70;99.90;;;;;;4952798;29;20415;-74
2022/09/16 01:27:00;;;;;;;3.33;0.80;;;10.70;99.90;;;;;;4953258;29;20446;-72
2022/09/16 01:29:34;;;;;;;6.57;0.82;;;10.60;99.90;;;;;;4952844;29;20050;-74
2022/09/16 01:32:22;;;;;;;3.58;0.70;;;10.60;99.90;;;;;;4965152;28;20061;-74
2022/09/16 01:35:03;;;;;;;4.78;0.88;;;10.60;99.90;;;;;;4993659;28;20081;-74
2022/09/16 01:37:41;;;;;;;5.30;0.88;;;10.50;99.90;;;;;;4993366;28;20050;-72
2022/09/16 01:40:27;;;;;;;2.17;0.80;;;10.40;99.90;;;;;;4993481;28;20050;-74
2022/09/16 01:43:18;;;;;;;3.60;1.20;;;10.40;99.90;;;;;;4993783;28;20086;-74
2022/09/16 01:45:53;;;;;;;4.53;0.70;;;10.30;99.90;;;;;;4992594;28;20058;-74
2022/09/16 01:48:26;;;;;;;6.15;1.02;;;10.30;99.90;;;;;;4993447;28;20049;-73
2022/09/16 01:51:11;;;;;;;3.28;1.10;;;10.30;99.90;;;;;;4992115;28;20061;-73
2022/09/16 01:53:45;;;;;;;3.47;0.80;;;10.30;99.90;;;;;;4991809;28;20053;-74
2022/09/16 01:56:22;;;;;;;2.53;0.70;;;10.70;99.90;;;;;;4993504;28;20084;-71
2022/09/16 01:59:07;;;;;;;6.22;0.90;;;10.40;99.90;;;;;;4993370;28;20046;-71
2022/09/16 02:01:45;;;;;;;6.47;0.80;;;10.40;99.90;;;;;;4993330;28;20058;-72
2022/09/16 02:04:20;;;;;;;8.32;1.58;;;10.40;99.90;;;;;;4993087;28;20375;-75
2022/09/16 02:06:48;;;;;;;2.22;0.60;;;10.50;99.90;;;;;;4993315;28;20084;-74
2022/09/16 02:09:20;;;;;;;4.18;0.70;;;10.50;99.90;;;;;;4991437;28;20458;-73
2022/09/16 02:11:49;;;;;;;2.67;0.90;;;10.50;99.90;;;;;;4992066;28;20113;-73
2022/09/16 02:14:21;;;;;;;3.38;0.80;;;10.50;99.90;;;;;;4993509;28;20050;-73
2022/09/16 02:16:58;;;;;;;4.20;1.05;;;10.50;99.90;;;;;;4991925;28;20061;-74
2022/09/16 02:19:30;;;;;;;4.13;0.63;;;10.50;99.90;;;;;;4993040;28;20042;-74
2022/09/16 02:22:00;;;;;;;3.75;0.95;;;10.40;99.90;;;;;;4993047;28;20046;-72
2022/09/16 02:24:28;;;;;;;5.65;1.25;;;10.40;99.90;;;;;;4993028;28;20514;-72
2022/09/16 02:26:59;;;;;;;2.63;0.80;;;10.30;99.90;;;;;;4993251;28;20100;-72
2022/09/16 02:29:29;;;;;;;4.47;0.80;;;10.30;99.90;;;;;;4992955;28;20110;-73
2022/09/16 02:31:59;;;;;;;1.48;0.68;;;10.20;99.90;;;;;;4993224;28;20478;-74
2022/09/16 02:34:33;;;;;;;2.58;0.63;;;10.10;99.90;;;;;;4992963;28;20053;-73
2022/09/16 02:37:04;;;;;;;4.53;0.90;;;10.10;99.90;;;;;;4991848;28;20509;-71
2022/09/16 02:39:33;;;;;;;4.18;0.60;;;10.10;99.90;;;;;;4992893;28;20077;-74
2022/09/16 02:42:00;;;;;;;3.30;0.88;;;10.00;99.90;;;;;;4992919;28;20050;-73
2022/09/16 02:44:26;;;;;;;4.22;1.00;;;10.00;99.90;;;;;;4992970;28;20049;-73
2022/09/16 02:47:04;;;;;;;4.32;0.68;;;10.10;99.90;;;;;;4992774;28;20042;-75
2022/09/16 02:49:54;;;;;;;4.88;0.70;;;10.10;99.90;;;;;;4992948;28;20253;-71
2022/09/16 02:52:43;;;;;;;3.85;0.60;;;10.10;99.90;;;;;;4992935;28;20045;-72
2022/09/16 02:55:49;;;;;;;4.38;0.90;;;10.10;99.90;;;;;;4992760;28;20082;-75
2022/09/16 02:58:15;;;;;;;4.75;1.23;;;10.10;99.90;;;;;;4955139;28;20061;-73
2022/09/16 03:00:48;;;;;;;3.45;0.82;;;10.20;99.90;;;;;;4971088;28;20454;-70
2022/09/16 03:03:14;;;;;;;5.88;0.90;;;10.10;99.90;;;;;;4955203;28;20507;-73
2022/09/16 03:06:13;;;;;;;3.10;1.05;;;10.10;99.90;;;;;;4971094;28;20082;-74
2022/09/16 03:08:39;;;;;;;2.95;1.02;;;10.00;99.90;;;;;;4940544;28;20115;-75
2022/09/16 03:11:14;;;;;;;3.10;0.70;;;10.00;99.90;;;;;;4970583;28;20062;-74
2022/09/16 03:14:06;;;;;;;2.70;0.70;;;9.90;99.90;;;;;;4971978;28;20090;-74
2022/09/16 03:16:56;;;;;;;4.50;0.90;;;9.90;99.90;;;;;;4974543;28;20047;-75
2022/09/16 03:19:43;;;;;;;5.15;0.82;;;10.00;99.90;;;;;;4958670;28;20086;-73
2022/09/16 03:22:26;;;;;;;4.80;1.00;;;10.00;99.90;;;;;;4974803;28;20406;-74
2022/09/16 03:25:08;;;;;;;2.67;0.68;;;10.10;99.90;;;;;;4958431;28;20054;-76
2022/09/16 03:27:49;;;;;;;6.03;1.20;;;10.10;99.90;;;;;;4974055;28;20043;-76
2022/09/16 03:30:15;;;;;;;2.60;1.05;;;10.20;99.90;;;;;;4974360;28;20038;-77
2022/09/16 03:32:47;;;;;;;6.38;1.02;;;10.20;99.90;;;;;;4989182;28;20053;-73
2022/09/16 03:35:32;;;;;;;4.88;0.95;;;10.30;99.90;;;;;;4996273;28;20433;-73
2022/09/16 03:37:59;;;;;;;3.85;1.33;;;10.30;99.90;;;;;;4995913;28;20046;-74
2022/09/16 03:40:28;;;;;;;6.30;1.20;;;10.30;99.90;;;;;;4995946;28;20049;-73
2022/09/16 03:42:56;;;;;;;6.20;1.00;;;10.30;99.90;;;;;;4995416;28;20135;-75
2022/09/16 03:45:23;;;;;;;3.20;0.80;;;10.30;99.90;;;;;;4995767;28;20047;-75
2022/09/16 03:47:51;;;;;;;6.82;0.90;;;10.40;99.90;;;;;;4995714;28;20090;-73
2022/09/16 03:50:17;;;;;;;3.45;0.80;;;10.40;99.90;;;;;;4994428;28;20086;-77
2022/09/16 03:52:43;;;;;;;3.00;0.80;;;10.40;99.90;;;;;;4996072;28;20170;-73
2022/09/16 03:55:12;;;;;;;6.20;1.00;;;10.40;99.90;;;;;;4995862;28;20499;-74
2022/09/16 03:57:38;;;;;;;5.70;1.13;;;10.30;99.90;;;;;;4995204;28;20137;-74
2022/09/16 04:00:05;;;;;;;7.55;1.00;;;10.30;99.90;;;;;;4995407;28;20142;-73
2022/09/16 04:02:31;;;;;;;3.67;1.00;;;10.20;99.90;;;;;;4995483;28;20482;-74
2022/09/16 04:04:57;;;;;;;2.17;0.95;;;10.30;99.90;;;;;;4995337;28;20046;-74
2022/09/16 04:07:22;;;;;;;4.95;0.90;;;10.10;99.90;;;;;;4995641;28;20073;-74
2022/09/16 04:09:48;;;;;;;6.22;1.55;;;10.10;99.90;;;;;;4993968;28;20061;-74
2022/09/16 04:12:14;;;;;;;4.32;1.33;;;10.00;99.90;;;;;;4995428;28;20406;-75
2022/09/16 04:14:40;;;;;;;3.30;0.88;;;9.90;99.90;;;;;;4995035;28;20043;-81
2022/09/16 04:17:05;;;;;;;3.05;0.80;;;9.90;99.90;;;;;;4995308;28;20050;-81
2022/09/16 04:19:31;;;;;;;3.22;0.93;;;9.80;99.90;;;;;;4993904;28;20083;-80
2022/09/16 04:21:57;;;;;;;5.40;0.70;;;9.70;99.90;;;;;;4995176;28;20506;-80
2022/09/16 04:24:24;;;;;;;2.90;0.80;;;9.70;99.90;;;;;;4995371;28;20085;-80
2022/09/16 04:26:49;;;;;;;4.18;0.82;;;9.60;99.90;;;;;;4994332;28;20039;-79
2022/09/16 04:29:16;;;;;;;5.85;0.90;;;9.60;99.90;;;;;;4994810;28;20581;-80
2022/09/16 04:31:42;;;;;;;11.88;1.08;;;9.50;99.90;;;;;;4995134;28;20416;-80
2022/09/16 04:34:10;;;;;;;4.40;0.90;;;9.60;99.90;;;;;;4995018;28;20054;-80
2022/09/16 04:36:36;;;;;;;6.38;1.10;;;9.60;99.90;;;;;;4995002;28;20047;-80
2022/09/16 04:39:02;;;;;;;3.85;0.90;;;9.50;99.90;;;;;;4994833;28;20042;-79
2022/09/16 04:41:28;;;;;;;6.68;0.95;;;9.60;99.90;;;;;;4994873;28;20372;-81
2022/09/16 04:43:58;;;;;;;5.50;1.10;;;9.40;99.90;;;;;;4993696;28;20046;-80
2022/09/16 04:46:26;;;;;;;3.08;0.90;;;9.50;99.90;;;;;;4994136;28;20035;-82
2022/09/16 04:48:53;;;;;;;3.60;0.85;;;9.40;99.90;;;;;;4994417;28;20093;-75
2022/09/16 04:51:21;;;;;;;6.35;0.73;;;9.30;99.90;;;;;;4994597;28;20046;-75
2022/09/16 04:53:48;;;;;;;3.65;0.80;;;9.40;99.90;;;;;;4994707;28;20126;-75
2022/09/16 04:56:16;;;;;;;5.28;0.85;;;9.30;99.90;;;;;;4994777;28;20414;-78
2022/09/16 04:58:44;;;;;;;3.67;0.60;;;9.40;99.90;;;;;;4994580;28;20473;-73
2022/09/16 05:01:16;;;;;;;2.05;0.55;;;9.30;99.90;;;;;;4994289;28;20042;-80
2022/09/16 05:03:43;;;;;;;;;;;9.20;99.90;;;;;;4994748;28;20038;-74
2022/09/16 05:06:12;;;;;;;3.42;1.23;;;9.20;99.90;;;;;;4994449;28;20465;-76
2022/09/16 05:08:38;;;;;;;4.63;0.88;;;9.40;99.90;;;;;;4993971;28;20149;-80
2022/09/16 05:11:10;;;;;;;3.20;0.70;;;9.20;99.90;;;;;;4994440;28;20112;-81
2022/09/16 05:13:36;;;;;;;4.60;0.85;;;9.20;99.90;;;;;;4994348;28;20097;-80
2022/09/16 05:16:16;;;;;;;3.70;0.90;;;9.10;99.90;;;;;;4992808;28;20057;-73
2022/09/16 05:18:43;;;;;;;3.10;0.80;;;9.10;99.90;;;;;;4994356;28;20054;-78
2022/09/16 05:21:11;;;;;;;3.67;0.88;;;9.10;99.90;;;;;;4992977;28;20054;-74
2022/09/16 05:23:39;;;;;;;4.93;1.48;;;9.10;99.90;;;;;;4992756;28;20121;-72
2022/09/16 05:26:08;;;;;;;4.93;0.82;;;9.10;99.90;;;;;;4994095;28;20046;-75
2022/09/16 05:28:35;;;;;;;6.88;1.02;;;9.10;99.90;;;;;;4994053;28;20148;-79
2022/09/16 05:31:20;;;;;;;6.72;0.85;;;9.10;99.90;;;;;;4993956;28;20050;-76
2022/09/16 05:33:56;;;;;;;2.78;0.70;;;9.20;99.90;;;;;;4994380;28;20096;-74
2022/09/16 05:36:23;;;;;;;4.07;0.77;;;9.20;99.90;;;;;;4992460;28;20042;-74
2022/09/16 05:38:49;;;;;;;1.38;0.50;;;9.20;99.90;;;;;;4992429;28;20057;-71
2022/09/16 05:41:14;;;;;;;5.82;1.10;;;9.20;99.90;;;;;;4992731;28;20491;-71
2022/09/16 05:43:40;;;;;;;3.13;0.52;;;9.20;99.90;;;;;;4993683;28;20053;-75
2022/09/16 05:46:06;;;;;;;5.20;0.60;;;9.40;99.90;;;;;;4993475;28;20046;-73
2022/09/16 05:48:33;;;;;;;1.20;0.50;;;9.40;99.90;;;;;;4992952;28;20049;-73
2022/09/16 05:51:02;;;;;;;6.70;0.88;;;9.30;99.90;;;;;;4984226;28;20081;-85
2022/09/16 05:53:29;;;;;;;3.50;0.68;;;9.40;99.90;;;;;;4979874;28;20045;-81
2022/09/16 05:56:03;;;;;;;3.60;0.60;;;9.50;99.90;;;;;;4980252;28;20375;-79
2022/09/16 05:58:31;;;;;;;3.90;0.68;;;9.50;99.90;;;;;;4982442;28;20046;-82
2022/09/16 06:00:59;;;;;;;9.25;1.33;;;9.50;99.90;;;;;;4981582;28;20057;-83
2022/09/16 06:03:26;;;;;;;2.75;0.77;;;9.50;99.90;;;;;;4980592;28;20155;-80
2022/09/16 06:05:58;;;;;;;3.95;0.60;;;9.50;99.90;;;;;;4982585;28;20039;-83
2022/09/16 06:08:24;;;;;;;5.03;0.82;;;9.50;99.90;;;;;;4983205;28;20050;-82
2022/09/16 06:10:49;;;;;;;6.32;0.98;;;9.50;99.90;;;;;;4996377;28;20386;-70
2022/09/16 06:13:15;;;;;;;2.55;0.75;;;9.60;99.90;;;;;;4980313;28;20379;-73
2022/09/16 06:15:49;;;;;;;5.45;0.70;;;9.60;99.90;;;;;;4981914;28;20382;-72
2022/09/16 06:18:16;;;;;;;1.88;0.65;;;9.60;99.90;;;;;;4972957;28;20054;-69
2022/09/16 06:20:41;;;;;;;4.88;0.70;;;9.70;99.90;;;;;;4973058;28;20086;-72
2022/09/16 06:23:07;;;;;;;4.40;0.68;;;9.80;99.90;;;;;;4973003;28;20050;-71
2022/09/16 06:25:33;;;;;;;3.70;0.82;;;10.00;99.90;;;;;;4972963;28;20078;-67
2022/09/16 06:27:58;;;;;;;2.08;0.60;;;9.90;99.90;;;;;;4973288;28;20049;-70
2022/09/16 06:30:24;;;;;;;2.83;0.73;;;9.90;99.90;;;;;;4973120;28;20411;-69
2022/09/16 06:32:50;;;;;;;3.67;0.80;;;9.90;99.90;;;;;;4976240;28;20050;-76
2022/09/16 06:35:16;;;;;;;5.05;0.88;;;9.90;99.90;;;;;;4989841;28;20593;-74
2022/09/16 06:37:41;;;;;;;1.95;0.70;;;10.00;99.90;;;;;;4987902;28;20054;-74
2022/09/16 06:40:08;;;;;;;7.80;0.90;;;10.00;99.90;;;;;;4986598;28;20076;-74
2022/09/16 06:42:33;;;;;;;1.48;0.60;;;10.00;99.90;;;;;;5040178;22;20084;-74
2022/09/16 06:44:59;;;;;;;5.35;0.88;;;10.10;99.90;;;;;;5050092;28;20087;-72
2022/09/16 06:47:25;;;;;;;7.22;1.00;;;10.10;99.90;;;;;;5049425;28;20060;-73
2022/09/16 06:49:51;;;;;;;4.53;0.90;;;10.20;99.90;;;;;;5034555;28;20489;-72
2022/09/16 06:52:16;;;;;;;3.35;0.82;;;10.20;99.90;;;;;;5053329;28;20080;-75
2022/09/16 06:54:42;;;;;;;6.47;0.63;;;10.40;99.90;;;;;;5054099;28;20098;-73
2022/09/16 06:57:08;;;;;;;3.22;0.82;;;10.30;99.90;;;;;;5035159;28;20037;-73
2022/09/16 06:59:33;;;;;;;3.67;0.93;;;10.80;99.90;;;;;;5054233;28;20056;-73
2022/09/16 07:02:00;;;;;;;6.13;0.68;;;10.50;99.90;;;;;;5053087;28;20123;-72
2022/09/16 07:04:26;;;;;;;5.07;0.82;;;10.50;99.90;;;;;;5053200;28;20059;-76
2022/09/16 07:06:51;;;;;;;2.58;0.80;;;10.60;99.90;;;;;;5051947;28;20041;-75
2022/09/16 07:09:17;;;;;;;6.65;1.10;;;10.60;99.90;;;;;;5051052;28;20083;-74
2022/09/16 07:11:42;;;;;;;4.35;1.10;;;10.70;99.90;;;;;;5048656;28;20056;-72
2022/09/16 07:14:08;;;;;;;9.02;1.92;;;10.70;99.90;;;;;;5051447;28;20370;-72
2022/09/16 07:16:34;;;;;;;5.20;0.85;;;10.90;99.90;;;;;;5052839;28;20059;-74
2022/09/16 07:19:00;;;;;;;3.90;0.88;;;10.90;99.90;;;;;;5036291;28;20441;-71
2022/09/16 07:21:30;;;;;;;4.80;0.90;;;11.00;99.90;;;;;;5054111;28;20045;-71
2022/09/16 07:23:58;;;;;;;6.93;0.80;;;11.10;99.90;;;;;;5054055;28;20136;-71
2022/09/16 07:26:26;;;;;;;9.35;1.13;;;11.10;99.90;;;;;;5053650;28;20044;-74
2022/09/16 07:28:53;;;;;;;3.33;1.00;;;11.20;99.90;;;;;;5054084;28;20052;-77
2022/09/16 07:31:24;;;;;;;8.85;0.80;;;11.20;99.90;;;;;;5053864;28;20466;-71
2022/09/16 07:33:51;;;;;;;4.03;0.90;;;11.30;99.90;;;;;;5054406;28;20036;-71
2022/09/16 07:36:24;;;;;;;8.15;1.45;;;11.40;99.90;;;;;;5052799;28;20037;-70
2022/09/16 07:38:50;;;;;;;;;;;11.60;99.90;;;;;;5054348;28;20040;-70
2022/09/16 07:41:22;;;;;;;2.63;0.80;;;11.70;99.90;;;;;;5053117;28;19920;-71
2022/09/16 07:43:49;;;;;;;4.55;0.90;;;12.00;99.90;;;;;;5053893;28;20492;-72
2022/09/16 07:46:16;;;;;;;4.70;0.88;;;12.30;99.90;;;;;;5053072;28;20041;-73
2022/09/16 07:48:44;;;;;;;10.30;1.27;;;12.30;99.90;;;;;;5044665;28;20040;-71
2022/09/16 07:51:12;;;;;;;10.95;0.93;;;12.40;99.90;;;;;;5027749;28;20049;-72
2022/09/16 07:53:38;;;;;;;5.97;1.10;;;12.60;99.90;;;;;;5034740;28;20056;-75
2022/09/16 07:56:10;;;;;;;3.28;0.50;;;12.50;99.90;;;;;;5053271;28;20070;-76
2022/09/16 07:58:37;;;;;;;4.50;0.60;;;12.50;99.90;;;;;;5049198;28;20045;-73
2022/09/16 08:01:04;;;;;;;3.60;0.40;;;12.40;99.90;;;;;;5034624;28;20401;-74
2022/09/16 08:03:31;;;;;;;2.15;0.60;;;12.50;99.90;;;;;;5035005;28;20144;-73
2022/09/16 08:06:02;;;;;;;5.45;0.90;;;12.90;99.90;;;;;;5053350;28;20488;-75
2022/09/16 08:08:29;;;;;;;7.63;1.20;;;12.90;99.90;;;;;;5034759;28;20443;-70
2022/09/16 08:10:56;;;;;;;5.70;1.10;;;13.10;99.90;;;;;;5052897;28;20053;-73
2022/09/16 08:13:22;;;;;;;3.70;0.75;;;13.30;99.90;;;;;;5051591;28;20040;-75
2022/09/16 08:15:47;;;;;;;4.88;0.75;;;13.20;99.90;;;;;;5052230;28;20047;-73
2022/09/16 08:18:13;;;;;;;2.70;0.55;;;13.00;99.90;;;;;;5034738;28;20435;-74
2022/09/16 08:20:39;;;;;;;5.32;0.90;;;12.90;99.90;;;;;;5052221;28;20037;-73
2022/09/16 08:23:05;;;;;;;2.92;0.52;;;12.90;99.90;;;;;;5035315;28;20155;-77
2022/09/16 08:25:31;;;;;;;2.33;0.50;;;13.00;99.90;;;;;;5033617;28;20049;-76
2022/09/16 08:27:57;;;;;;;6.90;0.68;;;13.10;99.90;;;;;;5052661;28;20095;-74
2022/09/16 08:30:23;;;;;;;4.10;0.98;;;13.20;99.90;;;;;;5052628;28;20045;-76
2022/09/16 08:32:55;;;;;;;6.95;1.50;;;13.40;99.90;;;;;;5034914;28;20069;-74
2022/09/16 08:35:21;;;;;;;4.30;0.70;;;13.70;99.90;;;;;;5052838;28;20135;-74
2022/09/16 08:37:47;;;;;;;3.22;0.70;;;13.60;99.90;;;;;;5052304;28;20523;-72
2022/09/16 08:40:20;;;;;;;9.73;1.10;;;13.70;99.90;;;;;;5052229;28;20045;-74
2022/09/16 08:43:03;;;;;;;5.78;1.02;;;13.60;99.90;;;;;;5030600;28;20052;-73
2022/09/16 08:45:44;;;;;;;8.63;1.00;;;13.80;99.90;;;;;;5032883;28;20492;-77
2022/09/16 08:48:19;;;;;;;11.20;1.08;;;13.80;99.90;;;;;;5033642;28;20053;-74
2022/09/16 08:50:47;;;;;;;8.73;1.10;;;14.00;99.90;;;;;;5014470;28;20072;-81
2022/09/16 08:53:31;;;;;;;5.70;0.85;;;14.20;99.90;;;;;;5033912;28;20052;-73
2022/09/16 08:56:00;;;;;;;4.22;1.42;;;14.20;99.90;;;;;;5031830;28;20091;-72
2022/09/16 08:58:32;;;;;;;7.80;1.30;;;14.30;99.90;;;;;;5051773;28;20528;-72
2022/09/16 09:01:03;;;;;;;3.08;0.63;;;14.40;99.90;;;;;;5052193;28;20045;-74
2022/09/16 09:03:36;;;;;;;10.00;0.90;;;14.50;99.90;;;;;;5034191;28;20378;-74
2022/09/16 09:06:20;;;;;;;9.07;0.93;;;14.60;99.90;;;;;;5052181;28;20062;-73
2022/09/16 09:09:13;;;;;;;5.53;0.95;;;14.60;99.90;;;;;;5051677;28;20056;-74
2022/09/16 09:11:56;;;;;;;7.95;0.98;;;14.70;99.90;;;;;;5032235;28;20171;-73
2022/09/16 09:14:32;;;;;;;6.90;1.00;;;14.80;99.90;;;;;;5030252;28;20090;-74
2022/09/16 09:17:27;;;;;;;5.85;0.93;;;14.90;99.90;;;;;;5031041;28;20045;-75
2022/09/16 09:20:19;;;;;;;5.75;0.80;;;14.90;99.90;;;;;;5030355;28;20122;-74
2022/09/16 09:23:06;;;;;;;2.15;0.50;;;15.10;99.90;;;;;;5033305;28;20052;-74
2022/09/16 09:26:00;;;;;;;6.95;0.90;;;15.20;99.90;;;;;;5031151;28;20112;-74
2022/09/16 09:29:03;;;;;;;6.88;1.05;;;15.50;99.90;;;;;;5049877;28;20484;-73
2022/09/16 09:31:39;;;;;;;7.97;1.63;;;15.60;99.90;;;;;;5048459;28;20059;-73
2022/09/16 09:34:23;;;;;;;9.85;1.20;;;15.80;99.90;;;;;;5051731;28;20056;-75
2022/09/16 09:37:04;;;;;;;8.52;1.23;;;15.90;99.90;;;;;;5033467;28;20067;-73
2022/09/16 09:39:45;;;;;;;7.15;1.80;;;15.80;99.90;;;;;;5031317;28;20095;-76
2022/09/16 09:42:22;;;;;;;7.82;1.08;;;15.70;99.90;;;;;;5050810;28;20063;-73
2022/09/16 09:44:55;;;;;;;4.43;0.85;;;15.50;99.90;;;;;;5036119;28;20420;-73
2022/09/16 09:48:08;;;;;;;12.60;1.00;;;15.40;99.90;;;;;;5032906;28;20493;-71
2022/09/16 09:50:47;;;;;;;3.60;0.80;;;15.20;99.90;;;;;;4934063;29;20063;-72
2022/09/16 09:53:46;;;;;;;10.77;1.73;;;15.10;99.90;;;;;;4931605;29;20122;-71
2022/09/16 09:56:29;;;;;;;4.65;0.77;;;15.00;99.90;;;;;;4926050;29;20056;-71
2022/09/16 09:59:03;;;;;;;8.00;1.10;;;14.90;99.90;;;;;;4915109;29;20051;-71
2022/09/16 10:01:29;;;;;;;5.93;1.23;;;14.70;99.90;;;;;;4924867;29;20063;-71
2022/09/16 10:03:57;;;;;;;5.88;0.82;;;14.60;99.90;;;;;;4909481;29;20048;-72
2022/09/16 10:06:32;;;;;;;3.25;0.85;;;14.60;99.90;;;;;;4909051;29;21247;-72
2022/09/16 10:08:58;;;;;;;7.10;0.70;;;14.60;99.90;;;;;;4931364;29;20539;-71
2022/09/16 10:11:27;;;;;;;8.90;1.10;;;14.50;99.90;;;;;;4931427;29;20055;-71
2022/09/16 10:13:56;;;;;;;3.97;0.80;;;14.50;99.90;;;;;;4931299;29;20099;-72
2022/09/16 10:16:27;;;;;;;7.88;0.82;;;14.40;99.90;;;;;;4930454;29;20095;-72
2022/09/16 10:19:04;;;;;;;6.60;1.17;;;14.50;99.90;;;;;;4930784;29;20074;-71
2022/09/16 10:21:52;;;;;;;4.88;0.90;;;14.70;99.90;;;;;;4915710;29;20083;-72
2022/09/16 10:24:24;;;;;;;4.05;0.52;;;15.20;99.90;;;;;;4930690;29;20067;-71
2022/09/16 10:26:50;;;;;;;4.68;0.70;;;15.40;99.90;;;;;;4943207;28;20050;-73
2022/09/16 10:29:18;;;;;;;3.10;0.50;;;15.30;99.90;;;;;;4989063;28;20046;-72
2022/09/16 10:31:44;;;;;;;3.03;0.60;;;14.80;99.90;;;;;;4982521;28;20551;-71
2022/09/16 10:34:33;;;;;;;6.43;0.60;;;14.50;99.90;;;;;;5032884;28;20167;-72
2022/09/16 10:37:10;;;;;;;4.75;0.75;;;14.20;99.90;;;;;;5050042;28;20059;-71
2022/09/16 10:39:38;;;;;;;2.08;0.98;;;14.00;99.90;;;;;;5047313;28;20048;-74
2022/09/16 10:42:14;;;;;;;6.10;1.38;;;14.00;99.90;;;;;;5049494;28;20124;-74
2022/09/16 10:44:41;;;;;;;5.60;0.82;;;13.90;99.90;;;;;;5048840;28;20087;-73
2022/09/16 10:47:18;;;;;;;1.95;0.50;;;14.20;99.90;;;;;;5027300;28;20136;-75
2022/09/16 10:49:50;;;;;;;4.30;0.93;;;14.50;99.90;;;;;;5031329;28;20059;-74
2022/09/16 10:52:25;;;;;;;10.30;1.38;;;14.80;99.90;;;;;;5031940;28;20041;-74
2022/09/16 10:54:52;;;;;;;5.38;0.93;;;15.10;99.90;;;;;;5013174;28;20123;-74
2022/09/16 10:57:33;;;;;;;5.85;1.05;;;15.40;99.90;;;;;;5049428;28;20037;-73
2022/09/16 11:00:10;;;;;;;7.88;0.80;;;15.70;99.90;;;;;;5027620;28;20072;-76
2022/09/16 11:03:06;;;;;;;4.90;1.60;;;15.90;99.90;;;;;;5046293;28;20123;-73
2022/09/16 11:05:40;;;;;;;9.90;0.90;;;16.10;99.90;;;;;;5047730;28;20048;-74
2022/09/16 11:08:24;;;;;;;6.82;0.80;;;16.10;99.90;;;;;;5025367;28;20546;-73
2022/09/16 11:11:06;;;;;;;8.80;0.82;;;16.20;99.90;;;;;;5046320;28;20044;-75
2022/09/16 11:13:59;;;;;;;8.48;1.02;;;16.00;99.90;;;;;;5047129;28;20096;-77
2022/09/16 11:16:43;;;;;;;5.13;0.80;;;15.80;99.90;;;;;;5045267;28;20400;-78
2022/09/16 11:19:41;;;;;;;3.60;0.85;;;15.60;99.90;;;;;;5050130;28;20405;-70
2022/09/16 11:22:29;;;;;;;7.10;1.00;;;15.70;99.90;;;;;;5049137;28;20178;-69
2022/09/16 11:25:29;;;;;;;2.88;0.55;;;15.80;99.90;;;;;;5048108;28;20447;-70
2022/09/16 11:28:36;;;;;;;2.88;0.80;;;16.10;99.90;;;;;;5047288;28;20059;-70
2022/09/16 11:31:04;;;;;;;3.90;0.68;;;16.30;99.90;;;;;;5015106;28;20516;-73
2022/09/16 11:33:42;;;;;;;5.30;0.68;;;16.60;99.90;;;;;;5031933;28;20075;-71
2022/09/16 11:36:38;;;;;;;5.13;1.10;;;16.70;99.90;;;;;;5035436;28;20053;-71
2022/09/16 11:39:18;;;;;;;2.22;0.63;;;17.00;99.90;;;;;;5019835;28;20041;-71
2022/09/16 11:41:59;;;;;;;3.30;0.63;;;17.40;99.90;;;;;;5037092;28;20088;-69
2022/09/16 11:44:40;;;;;;;2.63;0.30;;;17.50;99.90;;;;;;5031307;28;20127;-73
2022/09/16 11:47:17;;;;;;;1.20;0.35;;;16.70;99.90;;;;;;5053881;28;20047;-75
2022/09/16 11:50:04;;;;;;;1.70;0.47;;;15.90;99.90;;;;;;5027501;28;20412;-74
2022/09/16 11:53:06;;;;;;;2.17;0.40;;;15.30;99.90;;;;;;5046000;28;20041;-75
2022/09/16 11:55:35;;;;;;;1.50;0.50;;;15.00;99.90;;;;;;5050943;28;20128;-73
2022/09/16 11:58:26;;;;;;;2.38;0.55;;;14.70;99.90;;;;;;5052899;28;20048;-75
2022/09/16 12:00:56;;;;;;;7.00;1.08;;;14.70;99.90;;;;;;5033190;28;20044;-77
2022/09/16 12:03:30;;;;;;;6.75;0.80;;;14.90;99.90;;;;;;5033964;28;20424;-75
2022/09/16 12:06:03;;;;;;;11.70;1.20;;;15.20;99.90;;;;;;5052475;28;20547;-77
2022/09/16 12:08:43;;;;;;;9.07;1.45;;;15.50;99.90;;;;;;5052528;28;20041;-77
2022/09/16 12:11:41;;;;;;;5.38;1.20;;;15.60;99.90;;;;;;5052342;28;20056;-76
2022/09/16 12:14:27;;;;;;;13.48;1.45;;;16.00;99.90;;;;;;5053308;28;20049;-76
2022/09/16 12:17:12;;;;;;;8.45;1.00;;;16.40;99.90;;;;;;5049526;28;20110;-73
2022/09/16 12:20:02;;;;;;;9.75;0.98;;;16.70;99.90;;;;;;5053034;28;20067;-76
2022/09/16 12:22:42;;;;;;;8.60;0.93;;;16.70;99.90;;;;;;5049673;28;20052;-76
2022/09/16 12:25:32;;;;;;;10.18;1.30;;;16.70;99.90;;;;;;5053058;28;20041;-75
2022/09/16 12:28:15;;;;;;;15.63;1.75;;;16.70;99.90;;;;;;5049582;28;20045;-75
2022/09/16 12:31:02;;;;;;;7.95;1.40;;;16.90;99.90;;;;;;5053094;28;20095;-76
2022/09/16 12:33:34;;;;;;;7.28;0.90;;;17.00;99.90;;;;;;5014726;28;20044;-73
2022/09/16 12:36:05;;;;;;;;;;;17.00;99.90;;;;;;5053291;28;20052;-75
2022/09/16 12:38:31;;;;;;;6.10;0.98;;;16.90;99.90;;;;;;5052265;28;19921;-73
2022/09/16 12:41:21;;;;;;;6.32;1.45;;;16.80;99.90;;;;;;5053085;28;20068;-74
2022/09/16 12:44:16;;;;;;;6.20;0.98;;;16.60;99.90;;;;;;5033712;28;20132;-74
2022/09/16 12:47:05;;;;;;;10.45;1.10;;;16.50;99.90;;;;;;5049916;28;20033;-76
2022/09/16 12:49:56;;;;;;;5.78;1.08;;;16.40;99.90;;;;;;5030448;28;20558;-73
2022/09/16 12:52:56;;;;;;;5.60;1.48;;;16.30;99.90;;;;;;5051934;28;20056;-74
2022/09/16 12:55:51;;;;;;;9.20;1.30;;;16.20;99.90;;;;;;5050652;28;20064;-76
2022/09/16 12:58:31;;;;;;;17.85;1.90;;;16.20;99.90;;;;;;5051263;28;20098;-75
2022/09/16 13:01:33;;;;;;;7.65;1.73;;;16.30;99.90;;;;;;5031837;28;20068;-73
2022/09/16 13:04:24;;;;;;;6.03;1.08;;;16.30;99.90;;;;;;5008181;28;20528;-72
2022/09/16 13:09:46;;;;;;;6.13;0.98;;;16.20;99.90;;;;;;5002336;22;20410;-84
2022/09/16 13:12:25;;;;;;;7.97;1.00;;;16.30;99.90;;;;;;4993306;28;20062;-73
2022/09/16 13:14:55;;;;;;;12.18;1.17;;;16.30;99.90;;;;;;4993488;28;20046;-72
2022/09/16 13:17:39;;;;;;;4.95;0.90;;;16.30;99.90;;;;;;4990800;28;20073;-75
2022/09/16 13:20:17;;;;;;;9.27;1.60;;;16.20;99.90;;;;;;4989594;28;20046;-83
2022/09/16 13:22:54;;;;;;;5.78;0.77;;;16.40;99.90;;;;;;4992603;28;20053;-75
2022/09/16 13:25:25;;;;;;;8.88;1.40;;;16.20;99.90;;;;;;4975179;28;20066;-73